Time;durP1;ratioP1;P1;durP2;ratioP2;P2;SDS_P1;SDS_P2;PMS_P1;PMS_P2;Temp;Humidity;BMP_temperature;BMP_pressure;BME280_temperature;BME280_humidity;BME280_pressure;Samples;Min_cycle;Max_cycle;Signal;HPM_P1;HPM_P2
2022/01/03 00:01:34;;;;;;;4.50;1.50;;;;;;;10.91;71.91;98553.22;4109984;28;20225;-52
2022/01/03 00:03:36;;;;;;;6.13;1.80;;;;;;;10.90;71.80;98537.88;4111493;28;20229;-53
2022/01/03 00:05:40;;;;;;;5.47;1.75;;;;;;;10.88;71.94;98560.31;4110955;28;20214;-53
2022/01/03 00:07:44;;;;;;;6.72;2.00;;;;;;;10.90;71.64;98551.56;4096785;28;20237;-53
2022/01/03 00:09:45;;;;;;;2.60;2.22;;;;;;;10.95;70.94;98568.09;4108539;28;20355;-53
2022/01/03 00:11:47;;;;;;;5.10;2.00;;;;;;;10.95;70.81;98559.88;4109669;28;20248;-51
2022/01/03 00:13:50;;;;;;;2.95;1.95;;;;;;;10.99;70.40;98566.50;4123813;28;20214;-52
2022/01/03 00:15:52;;;;;;;6.70;2.03;;;;;;;10.93;71.01;98578.47;4125232;28;20226;-52
2022/01/03 00:17:54;;;;;;;4.38;2.03;;;;;;;11.01;70.72;98571.72;4124091;28;20852;-54
2022/01/03 00:19:56;;;;;;;8.52;2.15;;;;;;;11.02;70.57;98587.06;4125030;28;20273;-52
2022/01/03 00:21:58;;;;;;;6.53;2.75;;;;;;;11.01;70.16;98567.09;4108842;28;20234;-53
2022/01/03 00:24:08;;;;;;;4.90;1.70;;;;;;;11.03;70.16;98577.78;4108515;28;20217;-54
2022/01/03 00:26:11;;;;;;;4.53;1.92;;;;;;;11.01;70.46;98564.34;4110189;28;20692;-54
2022/01/03 00:28:12;;;;;;;3.70;1.75;;;;;;;10.98;70.56;98564.81;4110460;28;20230;-52
2022/01/03 00:30:18;;;;;;;5.78;1.90;;;;;;;11.04;70.27;98563.81;4109131;28;20266;-53
2022/01/03 00:32:21;;;;;;;8.85;2.78;;;;;;;11.05;69.94;98578.34;4108316;28;20202;-53
2022/01/03 00:34:27;;;;;;;5.75;2.08;;;;;;;11.00;70.44;98590.06;4123610;28;20635;-53
2022/01/03 00:36:30;;;;;;;3.97;1.83;;;;;;;11.03;70.38;98584.06;4108712;28;20210;-53
2022/01/03 00:38:34;;;;;;;3.80;1.70;;;;;;;10.97;70.41;98600.69;4124597;28;20304;-52
2022/01/03 00:40:36;;;;;;;5.72;1.85;;;;;;;10.94;70.79;98623.94;4109918;28;20210;-52
2022/01/03 00:42:39;;;;;;;4.32;1.67;;;;;;;10.99;70.71;98632.22;4124478;28;20206;-53
2022/01/03 00:44:42;;;;;;;2.38;2.00;;;;;;;10.53;66.73;98619.91;4125602;28;20206;-52
2022/01/03 00:46:46;;;;;;;5.47;1.20;;;;;;;10.23;68.45;98658.50;4125229;28;20214;-54
2022/01/03 00:48:50;;;;;;;3.28;1.08;;;;;;;9.62;70.33;98650.09;4108605;28;20234;-53
2022/01/03 00:50:52;;;;;;;2.28;1.08;;;;;;;9.41;72.19;98660.81;4109803;28;20199;-53
2022/01/03 00:52:54;;;;;;;5.95;1.15;;;;;;;8.97;73.65;98655.97;4122478;28;20938;-53
2022/01/03 00:54:56;;;;;;;1.85;1.00;;;;;;;8.78;74.46;98613.47;4108540;28;20206;-53
2022/01/03 00:57:03;;;;;;;5.97;1.00;;;;;;;8.74;74.02;98650.50;4125482;28;20211;-53
2022/01/03 00:59:07;;;;;;;4.63;1.60;;;;;;;8.75;75.11;98641.25;4108016;28;20853;-54
2022/01/03 01:01:10;;;;;;;1.73;1.00;;;;;;;8.78;75.44;98663.41;4109070;28;20207;-53
2022/01/03 01:03:36;;;;;;;4.75;1.85;;;;;;;8.62;75.99;98679.63;4109896;28;20214;-54
2022/01/03 01:05:40;;;;;;;3.85;1.63;;;;;;;8.45;75.94;98684.94;4106588;28;20237;-53
2022/01/03 01:07:44;;;;;;;3.10;1.98;;;;;;;8.35;76.56;98670.19;4123768;28;20639;-53
2022/01/03 01:09:50;;;;;;;3.80;2.55;;;;;;;8.28;76.79;98667.53;4123300;28;20221;-54
2022/01/03 01:11:54;;;;;;;5.57;1.27;;;;;;;8.13;77.27;98653.47;4108802;28;20462;-57
2022/01/03 01:13:57;;;;;;;8.43;1.40;;;;;;;8.18;77.21;98655.50;4096008;28;20222;-55
2022/01/03 01:15:58;;;;;;;2.17;1.40;;;;;;;8.20;77.13;98664.31;4127939;28;20310;-54
2022/01/03 01:18:04;;;;;;;3.63;1.23;;;;;;;8.21;76.85;98663.28;4095262;28;20286;-54
2022/01/03 01:20:06;;;;;;;5.03;1.55;;;;;;;8.18;76.70;98660.97;4111619;28;20221;-56
2022/01/03 01:22:09;;;;;;;2.00;1.25;;;;;;;8.18;77.38;98660.97;4111084;28;20257;-55
2022/01/03 01:24:11;;;;;;;1.70;1.60;;;;;;;8.23;77.00;98652.97;4110614;28;20207;-54
2022/01/03 01:28:33;;;;;;;4.45;1.55;;;;;;;8.27;77.08;98659.59;4125363;28;20707;-55
2022/01/03 01:30:35;;;;;;;3.03;1.10;;;;;;;8.34;77.90;98666.63;4127206;28;20277;-55
2022/01/03 01:32:48;;;;;;;1.30;1.02;;;;;;;8.35;78.22;98662.81;4110558;28;20211;-56
2022/01/03 01:34:51;;;;;;;2.85;1.33;;;;;;;8.36;78.51;98663.66;4096395;28;20321;-55
2022/01/03 01:36:55;;;;;;;2.80;1.27;;;;;;;8.37;78.70;98660.72;4124456;28;20658;-55
2022/01/03 01:39:04;;;;;;;3.50;1.60;;;;;;;8.44;78.88;98671.50;4124347;28;20253;-56
2022/01/03 01:41:08;;;;;;;4.10;1.30;;;;;;;8.43;78.77;98680.75;4112476;28;20217;-55
2022/01/03 01:43:12;;;;;;;2.33;1.00;;;;;;;8.47;79.00;98692.84;4105499;28;20768;-55
2022/01/03 01:45:16;;;;;;;7.70;1.83;;;;;;;8.51;78.91;98672.25;4107535;28;20261;-55
2022/01/03 01:47:18;;;;;;;1.90;1.38;;;;;;;8.44;79.21;98666.91;4125675;28;20209;-56
2022/01/03 01:49:23;;;;;;;5.03;2.42;;;;;;;8.45;79.30;98673.19;4124851;28;20245;-56
2022/01/03 01:51:26;;;;;;;4.43;1.65;;;;;;;8.56;79.41;98669.66;4108945;28;20198;-55
2022/01/03 01:53:28;;;;;;;2.65;1.25;;;;;;;8.51;78.81;98644.97;4121900;28;20214;-56
2022/01/03 01:55:29;;;;;;;3.75;1.30;;;;;;;8.54;79.46;98644.53;4109780;28;20231;-56
2022/01/03 01:58:06;;;;;;;5.10;1.23;;;;;;;8.54;78.88;98642.59;4108956;28;20280;-55
2022/01/03 02:00:11;;;;;;;1.83;1.15;;;;;;;8.61;79.73;98656.97;4109595;28;20241;-56
2022/01/03 02:02:16;;;;;;;2.50;1.38;;;;;;;8.59;79.62;98691.00;4107474;28;20238;-56
2022/01/03 02:04:42;;;;;;;6.25;1.85;;;;;;;8.58;80.01;98686.59;4122278;28;20210;-56
2022/01/03 02:06:46;;;;;;;3.20;1.08;;;;;;;8.53;79.04;98676.41;4125757;28;20198;-55
2022/01/03 02:09:08;;;;;;;6.53;1.42;;;;;;;8.54;79.50;98674.53;4123971;28;20258;-55
2022/01/03 02:11:47;;;;;;;3.65;1.25;;;;;;;8.43;79.40;98672.59;4095179;28;20243;-56
2022/01/03 02:13:49;;;;;;;4.43;1.90;;;;;;;8.44;79.31;98671.50;4089283;28;20419;-55
2022/01/03 02:16:03;;;;;;;2.25;1.27;;;;;;;8.34;78.92;98671.25;4107759;28;20783;-55
2022/01/03 02:18:06;;;;;;;1.42;1.00;;;;;;;8.35;79.28;98664.75;4109194;28;20326;-54
2022/01/03 02:20:14;;;;;;;4.40;1.75;;;;;;;8.33;79.14;98677.75;4107610;28;20235;-56
2022/01/03 02:22:16;;;;;;;4.25;1.17;;;;;;;8.36;79.27;98659.03;4107441;28;20669;-56
2022/01/03 02:24:18;;;;;;;2.45;1.00;;;;;;;8.38;78.67;98680.63;4124783;28;20214;-56
2022/01/03 02:26:19;;;;;;;6.00;1.38;;;;;;;8.37;78.86;98677.09;4110639;28;20210;-55
2022/01/03 02:28:22;;;;;;;6.40;1.38;;;;;;;8.36;79.15;98669.13;4093337;28;20258;-55
2022/01/03 02:30:27;;;;;;;1.52;1.10;;;;;;;8.41;79.12;98672.00;4106216;28;20585;-55
2022/01/03 02:32:30;;;;;;;3.28;1.10;;;;;;;8.39;79.64;98657.75;4089545;28;20216;-54
2022/01/03 02:34:32;;;;;;;7.43;1.30;;;;;;;8.42;79.13;98665.47;4108780;28;20254;-55
2022/01/03 02:36:35;;;;;;;4.20;1.50;;;;;;;8.44;79.01;98658.72;4106087;28;20217;-55
2022/01/03 02:38:37;;;;;;;3.72;1.13;;;;;;;8.39;79.85;98657.75;4106563;28;20254;-56
2022/01/03 02:40:39;;;;;;;7.40;1.77;;;;;;;8.36;79.33;98659.03;4107390;28;20720;-55
2022/01/03 02:42:42;;;;;;;1.25;1.13;;;;;;;8.41;79.40;98652.91;4106378;28;20211;-56
2022/01/03 02:44:45;;;;;;;12.20;2.58;;;;;;;8.41;79.66;98644.72;4106135;28;20210;-55
2022/01/03 02:46:46;;;;;;;9.18;1.65;;;;;;;8.39;79.23;98652.28;4108126;28;20261;-54
2022/01/03 02:48:48;;;;;;;3.63;1.77;;;;;;;8.40;79.20;98643.03;4106814;28;20258;-54
2022/01/03 02:50:50;;;;;;;4.80;1.70;;;;;;;8.41;79.59;98650.19;4120935;28;20737;-55
2022/01/03 02:52:53;;;;;;;5.22;1.60;;;;;;;8.41;79.55;98650.19;4104439;28;20656;-54
2022/01/03 02:54:54;;;;;;;5.05;2.42;;;;;;;8.43;79.38;98648.84;4090684;28;20315;-55
2022/01/03 02:56:56;;;;;;;8.18;1.35;;;;;;;8.53;79.56;98648.28;4107181;28;20244;-54
2022/01/03 02:58:58;;;;;;;8.85;2.35;;;;;;;8.48;79.37;98646.28;4108079;28;20305;-53
2022/01/03 03:01:01;;;;;;;9.90;2.08;;;;;;;8.52;79.82;98643.91;4101506;28;20207;-54
2022/01/03 03:03:03;;;;;;;7.15;1.70;;;;;;;8.57;79.08;98630.41;4121150;28;20268;-54
2022/01/03 03:05:07;;;;;;;7.07;2.22;;;;;;;8.54;79.40;98644.53;4090630;28;20220;-54
2022/01/03 03:07:23;;;;;;;8.32;2.03;;;;;;;8.65;79.77;98640.97;4120251;28;20248;-54
2022/01/03 03:09:24;;;;;;;7.50;2.58;;;;;;;8.67;79.52;98645.13;4107164;28;20230;-55
2022/01/03 03:11:26;;;;;;;8.52;1.55;;;;;;;8.75;79.51;98647.50;4104079;28;20735;-54
2022/01/03 03:13:28;;;;;;;6.35;1.98;;;;;;;8.70;79.58;98644.66;4103301;28;20215;-54
2022/01/03 03:15:30;;;;;;;6.30;2.47;;;;;;;8.78;79.19;98641.59;4101296;28;20235;-54
2022/01/03 03:17:32;;;;;;;9.93;2.40;;;;;;;8.76;79.01;98640.97;4102676;28;20215;-54
2022/01/03 03:20:01;;;;;;;15.50;2.25;;;;;;;8.88;78.33;98646.47;4121310;28;20634;-54
2022/01/03 03:22:02;;;;;;;6.45;2.13;;;;;;;8.97;78.40;98642.31;4107530;28;20211;-55
2022/01/03 03:24:05;;;;;;;7.97;2.53;;;;;;;8.97;78.55;98628.66;4107068;28;20230;-54
2022/01/03 03:26:08;;;;;;;4.63;1.90;;;;;;;9.00;78.32;98633.63;4123965;28;20206;-54
2022/01/03 03:28:12;;;;;;;18.33;2.33;;;;;;;9.02;78.33;98636.97;4123407;28;20229;-54
2022/01/03 03:30:16;;;;;;;10.10;2.05;;;;;;;9.10;78.28;98628.44;4109135;28;20211;-54
2022/01/03 03:32:18;;;;;;;20.17;2.65;;;;;;;9.10;78.43;98637.47;4110901;28;20219;-54
2022/01/03 03:34:22;;;;;;;9.35;1.80;;;;;;;9.08;78.59;98645.03;4124060;28;20203;-55
2022/01/03 03:36:23;;;;;;;6.10;2.78;;;;;;;9.12;78.70;98651.69;4108861;28;20247;-54
2022/01/03 03:38:26;;;;;;;8.65;1.95;;;;;;;9.09;78.55;98643.16;4109497;28;20720;-54
2022/01/03 03:40:28;;;;;;;9.63;2.03;;;;;;;9.07;78.67;98640.66;4125872;28;20225;-54
2022/01/03 03:42:30;;;;;;;10.90;2.75;;;;;;;9.15;77.98;98636.75;4092662;28;20271;-54
2022/01/03 03:44:32;;;;;;;6.50;1.88;;;;;;;9.20;78.04;98636.84;4112152;28;20599;-55
2022/01/03 03:46:35;;;;;;;7.93;1.77;;;;;;;9.19;77.49;98637.91;4112415;28;20275;-55
2022/01/03 03:48:38;;;;;;;6.25;2.08;;;;;;;9.25;77.81;98634.22;4111477;28;20775;-54
2022/01/03 03:50:40;;;;;;;8.10;2.85;;;;;;;9.20;78.24;98628.66;4111392;28;20199;-54
2022/01/03 03:52:43;;;;;;;7.10;1.75;;;;;;;9.20;78.04;98631.38;4124340;28;20306;-55
2022/01/03 03:54:45;;;;;;;7.10;2.42;;;;;;;9.20;77.49;98629.50;4125099;28;20587;-54
2022/01/03 03:56:46;;;;;;;7.80;1.80;;;;;;;9.31;77.91;98634.13;4129288;28;20214;-54
2022/01/03 03:58:48;;;;;;;8.32;2.05;;;;;;;9.32;77.52;98627.59;4127738;28;20235;-55
2022/01/03 04:00:50;;;;;;;5.43;1.80;;;;;;;9.29;77.81;98638.16;4111529;28;20227;-55
2022/01/03 04:03:09;;;;;;;7.70;3.10;;;;;;;9.35;77.07;98637.19;4125757;28;20217;-55
2022/01/03 04:05:12;;;;;;;6.28;1.80;;;;;;;9.29;77.22;98621.78;4113390;28;20646;-55
2022/01/03 04:07:14;;;;;;;9.13;2.33;;;;;;;9.30;77.52;98623.44;4120681;28;20703;-54
2022/01/03 04:09:15;;;;;;;10.30;2.88;;;;;;;9.42;76.14;98629.72;4124472;28;20250;-54
2022/01/03 04:11:18;;;;;;;10.20;2.58;;;;;;;9.42;76.19;98621.53;4112016;28;20207;-54
2022/01/03 04:13:20;;;;;;;16.20;1.90;;;;;;;9.42;75.82;98621.53;4109500;28;20207;-54
2022/01/03 04:15:21;;;;;;;9.63;3.45;;;;;;;9.42;75.91;98608.69;4108778;28;20554;-54
2022/01/03 04:17:23;;;;;;;9.50;2.20;;;;;;;9.45;75.92;98623.75;4124033;28;20257;-53
2022/01/03 04:19:25;;;;;;;8.65;2.20;;;;;;;9.45;75.39;98627.34;4124501;28;20206;-54
2022/01/03 04:21:27;;;;;;;6.57;2.42;;;;;;;9.45;75.27;98637.41;4108232;28;20664;-54
2022/01/03 04:23:29;;;;;;;8.55;2.72;;;;;;;9.45;75.25;98643.72;4108205;28;20218;-54
2022/01/03 04:25:31;;;;;;;10.60;2.88;;;;;;;9.47;75.46;98640.72;4107920;28;20292;-54
2022/01/03 04:27:33;;;;;;;16.55;2.67;;;;;;;9.44;75.61;98638.50;4107445;28;20261;-54
2022/01/03 04:29:34;;;;;;;13.70;2.22;;;;;;;9.47;75.47;98651.66;4115671;28;20203;-54
2022/01/03 04:31:36;;;;;;;8.35;2.40;;;;;;;9.46;75.59;98653.56;4122157;28;20206;-54
2022/01/03 04:33:38;;;;;;;5.35;2.17;;;;;;;9.41;75.92;98642.53;4109569;28;20557;-54
2022/01/03 04:35:40;;;;;;;11.15;2.47;;;;;;;9.47;75.62;98651.66;4110105;28;20222;-54
2022/01/03 04:37:41;;;;;;;10.32;2.83;;;;;;;9.46;75.24;98645.38;4107658;28;20241;-54
2022/01/03 04:39:44;;;;;;;14.43;1.98;;;;;;;9.50;74.56;98632.06;4124197;28;20214;-54
2022/01/03 04:41:46;;;;;;;12.20;2.75;;;;;;;9.48;75.57;98647.88;4109150;28;20335;-54
2022/01/03 04:43:48;;;;;;;7.97;1.98;;;;;;;9.48;75.06;98642.41;4123290;28;20262;-54
2022/01/03 04:45:49;;;;;;;9.13;2.15;;;;;;;9.45;75.24;98649.19;4109267;28;20211;-54
2022/01/03 04:47:51;;;;;;;18.95;4.10;;;;;;;9.54;74.40;98630.53;4124767;28;20238;-53
2022/01/03 04:49:53;;;;;;;8.90;2.08;;;;;;;9.50;74.62;98645.72;4108407;28;20218;-53
2022/01/03 04:51:54;;;;;;;5.18;2.40;;;;;;;9.50;74.61;98641.09;4092560;28;20629;-53
2022/01/03 04:53:56;;;;;;;15.70;2.45;;;;;;;9.55;74.46;98630.25;4104595;28;22198;-54
2022/01/03 04:55:58;;;;;;;10.32;2.33;;;;;;;9.54;74.43;98646.91;4126276;28;20216;-53
2022/01/03 04:58:00;;;;;;;22.25;3.00;;;;;;;9.51;74.12;98631.00;4125543;28;20252;-55
2022/01/03 05:00:04;;;;;;;5.43;2.22;;;;;;;9.60;74.32;98629.53;4123124;28;20308;-53
2022/01/03 05:02:06;;;;;;;12.10;2.70;;;;;;;9.49;74.96;98638.59;4108707;28;20289;-54
2022/01/03 05:04:08;;;;;;;10.02;2.17;;;;;;;9.47;74.82;98636.09;4110291;28;20311;-55
2022/01/03 05:06:10;;;;;;;7.13;2.28;;;;;;;9.50;74.43;98640.25;4122550;28;20206;-55
2022/01/03 05:08:12;;;;;;;13.23;2.55;;;;;;;9.50;73.96;98635.63;4109011;28;20287;-53
2022/01/03 05:10:14;;;;;;;8.43;2.28;;;;;;;9.49;74.27;98641.34;4110417;28;20692;-53
2022/01/03 05:12:17;;;;;;;10.38;2.55;;;;;;;9.53;74.19;98650.69;4108145;28;20267;-54
2022/01/03 05:14:18;;;;;;;6.10;1.55;;;;;;;9.55;74.53;98651.31;4127205;28;20630;-55
2022/01/03 05:16:23;;;;;;;11.98;2.95;;;;;;;9.55;73.97;98643.91;4107475;28;20203;-54
2022/01/03 05:18:25;;;;;;;11.48;2.42;;;;;;;9.49;74.44;98652.25;4121368;28;20229;-54
2022/01/03 05:20:26;;;;;;;16.98;3.97;;;;;;;9.53;74.09;98646.06;4107361;28;20230;-54
2022/01/03 05:22:28;;;;;;;9.88;2.78;;;;;;;9.51;74.08;98647.38;4108151;28;20310;-55
2022/01/03 05:24:33;;;;;;;10.35;3.25;;;;;;;9.53;74.31;98645.22;4105308;28;20215;-54
2022/01/03 05:26:35;;;;;;;8.77;2.50;;;;;;;9.49;73.66;98644.06;4109399;28;20211;-54
2022/01/03 05:28:37;;;;;;;8.00;1.98;;;;;;;9.43;74.19;98642.28;4108576;28;20258;-54
2022/01/03 05:30:39;;;;;;;19.05;2.35;;;;;;;9.48;73.72;98658.81;4108352;28;20206;-55
2022/01/03 05:32:40;;;;;;;9.45;2.10;;;;;;;9.43;74.33;98661.41;4105347;28;20213;-54
2022/01/03 05:34:42;;;;;;;7.38;2.75;;;;;;;9.42;74.35;98646.91;4109774;28;20684;-54
2022/01/03 05:36:45;;;;;;;10.10;2.88;;;;;;;9.41;74.11;98653.44;4106613;28;20210;-55
2022/01/03 05:38:47;;;;;;;14.98;2.42;;;;;;;9.42;74.36;98643.38;4122311;28;20280;-55
2022/01/03 05:40:48;;;;;;;11.18;2.50;;;;;;;9.43;74.03;98642.28;4106669;28;20358;-55
2022/01/03 05:42:51;;;;;;;10.88;2.10;;;;;;;9.39;74.38;98654.75;4108803;28;20229;-54
2022/01/03 05:44:52;;;;;;;7.10;2.25;;;;;;;9.45;73.96;98648.34;4105204;28;20282;-54
2022/01/03 05:46:54;;;;;;;7.55;2.38;;;;;;;9.50;73.51;98657.50;4120959;28;20724;-54
2022/01/03 05:48:56;;;;;;;6.88;2.92;;;;;;;9.53;73.53;98661.63;4105743;28;20235;-55
2022/01/03 05:50:58;;;;;;;13.02;2.67;;;;;;;9.51;73.48;98653.69;4108243;28;20241;-55
2022/01/03 05:52:59;;;;;;;12.88;2.38;;;;;;;9.58;73.26;98659.00;4110552;28;20202;-55
2022/01/03 05:55:01;;;;;;;8.32;2.15;;;;;;;9.56;72.82;98661.16;4085587;28;20235;-54
2022/01/03 05:57:03;;;;;;;12.90;2.40;;;;;;;9.49;73.99;98660.47;4104844;28;20223;-54
2022/01/03 05:59:07;;;;;;;7.95;1.98;;;;;;;9.44;73.40;98657.59;4102468;28;20667;-54
2022/01/03 06:01:09;;;;;;;11.23;2.83;;;;;;;9.47;73.96;98651.66;4108313;28;20738;-55
2022/01/03 06:03:12;;;;;;;8.65;2.67;;;;;;;9.52;73.14;98649.03;4106784;28;20283;-53
2022/01/03 06:05:32;;;;;;;10.30;2.72;;;;;;;9.47;73.55;98657.13;4108370;28;20293;-54
2022/01/03 06:07:34;;;;;;;9.32;2.80;;;;;;;9.51;72.94;98644.66;4111126;28;20256;-53
2022/01/03 06:09:37;;;;;;;18.75;3.55;;;;;;;9.47;73.47;98657.13;4108953;28;20245;-55
2022/01/03 06:11:39;;;;;;;5.50;1.83;;;;;;;9.47;73.29;98651.66;4090978;28;20203;-55
2022/01/03 06:13:40;;;;;;;10.20;3.20;;;;;;;9.48;73.25;98653.34;4108437;28;20672;-54
2022/01/03 06:15:43;;;;;;;12.45;3.55;;;;;;;9.50;73.34;98651.19;4124106;28;20249;-54
2022/01/03 06:17:45;;;;;;;14.60;2.85;;;;;;;9.46;73.32;98655.47;4092178;28;20235;-54
2022/01/03 06:19:47;;;;;;;5.72;2.35;;;;;;;9.45;73.64;98654.63;4105121;28;20298;-54
2022/01/03 06:21:49;;;;;;;19.70;2.03;;;;;;;9.46;73.38;98650.00;4108207;28;20766;-54
2022/01/03 06:23:51;;;;;;;8.70;3.50;;;;;;;9.38;73.59;98637.56;4110401;28;20234;-55
2022/01/03 06:25:53;;;;;;;13.20;2.65;;;;;;;9.43;73.54;98642.28;4110624;28;20643;-55
2022/01/03 06:27:56;;;;;;;5.70;2.20;;;;;;;9.48;73.15;98639.69;4125245;28;20754;-51
2022/01/03 06:29:57;;;;;;;7.72;2.35;;;;;;;9.44;72.99;98641.22;4109081;28;20218;-53
2022/01/03 06:31:59;;;;;;;11.98;3.05;;;;;;;9.46;73.30;98634.44;4094176;28;20291;-53
2022/01/03 06:34:01;;;;;;;14.23;2.97;;;;;;;9.49;72.62;98638.59;4111169;28;20207;-54
2022/01/03 06:36:03;;;;;;;14.60;2.17;;;;;;;9.48;72.63;98636.94;4113511;28;20851;-55
2022/01/03 06:38:05;;;;;;;8.68;2.67;;;;;;;9.53;72.77;98626.09;4110656;28;20322;-55
2022/01/03 06:40:07;;;;;;;9.80;2.45;;;;;;;9.43;73.15;98631.38;4113292;28;20202;-55
2022/01/03 06:42:09;;;;;;;10.13;1.73;;;;;;;9.46;73.13;98636.34;4110642;28;20214;-55
2022/01/03 06:44:11;;;;;;;6.75;2.10;;;;;;;9.45;73.57;98637.41;4109658;28;20672;-54
2022/01/03 06:46:13;;;;;;;9.88;2.60;;;;;;;9.42;73.08;98632.44;4109748;28;20221;-54
2022/01/03 06:48:17;;;;;;;10.70;2.15;;;;;;;9.33;73.55;98633.84;4110788;28;20270;-53
2022/01/03 06:50:22;;;;;;;14.45;2.15;;;;;;;9.36;73.78;98638.84;4110119;28;20576;-55
2022/01/03 06:52:24;;;;;;;15.05;3.00;;;;;;;9.31;73.79;98636.00;4123802;28;20198;-52
2022/01/03 06:54:26;;;;;;;7.78;2.25;;;;;;;9.31;73.63;98627.81;4126067;28;20205;-54
2022/01/03 06:56:28;;;;;;;11.63;2.35;;;;;;;9.33;73.78;98625.66;4109858;28;20210;-53
2022/01/03 06:58:31;;;;;;;14.23;2.50;;;;;;;9.39;73.59;98627.44;4112462;28;20735;-54
2022/01/03 07:00:36;;;;;;;7.88;2.17;;;;;;;9.41;73.64;98620.69;4107620;28;20213;-53
2022/01/03 07:02:42;;;;;;;6.88;2.50;;;;;;;9.38;73.73;98617.59;4122495;28;20207;-53
2022/01/03 07:04:44;;;;;;;8.20;3.20;;;;;;;9.44;73.80;98611.16;4123943;28;20511;-53
2022/01/03 07:06:48;;;;;;;8.77;3.10;;;;;;;9.44;73.53;98609.28;4125950;28;20209;-53
2022/01/03 07:08:50;;;;;;;5.65;2.20;;;;;;;9.46;73.53;98606.28;4112046;28;20238;-52
2022/01/03 07:10:52;;;;;;;10.65;2.70;;;;;;;9.45;73.54;98605.47;4114767;28;20216;-52
2022/01/03 07:13:01;;;;;;;11.48;3.13;;;;;;;9.46;73.84;98600.81;4127274;28;20202;-53
2022/01/03 07:19:47;;;;;;;8.05;2.63;;;;;;;9.37;74.02;98602.28;4129897;28;20264;-53
2022/01/03 07:21:49;;;;;;;16.02;3.42;;;;;;;9.39;73.72;98600.13;4113242;28;20234;-53
2022/01/03 07:23:51;;;;;;;13.40;3.10;;;;;;;9.40;73.91;98607.25;4116588;28;20665;-54
2022/01/03 07:25:53;;;;;;;14.63;2.17;;;;;;;9.37;74.32;98596.81;4128964;28;20714;-53
2022/01/03 07:27:56;;;;;;;14.63;3.17;;;;;;;9.33;74.96;98598.38;4112092;28;20277;-54
2022/01/03 07:29:58;;;;;;;14.93;4.25;;;;;;;9.27;75.96;98596.59;4111960;28;20321;-53
2022/01/03 07:32:00;;;;;;;7.40;2.90;;;;;;;9.22;76.74;98612.88;4109857;28;20731;-54
2022/01/03 07:34:07;;;;;;;9.48;3.42;;;;;;;9.28;76.97;98609.19;4113999;28;20674;-54
2022/01/03 07:36:10;;;;;;;10.60;2.70;;;;;;;9.24;76.87;98605.28;4128836;28;20198;-54
2022/01/03 07:38:11;;;;;;;7.57;2.88;;;;;;;9.20;77.48;98604.91;4109180;28;20227;-53
2022/01/03 07:40:13;;;;;;;9.70;2.65;;;;;;;9.13;77.69;98606.09;4129905;28;20199;-54
2022/01/03 07:42:15;;;;;;;14.82;3.03;;;;;;;9.06;78.14;98602.66;4113711;28;20234;-55
2022/01/03 07:44:20;;;;;;;16.67;3.53;;;;;;;9.13;77.66;98600.66;4129126;28;20667;-54
2022/01/03 07:46:21;;;;;;;17.88;4.35;;;;;;;9.09;77.49;98596.75;4126661;28;20653;-54
2022/01/03 07:48:25;;;;;;;9.75;3.25;;;;;;;9.12;77.65;98607.19;4113618;28;20234;-54
2022/01/03 07:50:26;;;;;;;9.85;3.13;;;;;;;9.18;78.16;98608.94;4112388;28;20298;-53
2022/01/03 07:52:28;;;;;;;9.27;2.45;;;;;;;9.10;77.88;98601.13;4112744;28;20215;-53
2022/01/03 07:54:30;;;;;;;19.02;2.78;;;;;;;9.08;78.20;98609.56;4111502;28;20218;-54
2022/01/03 07:56:33;;;;;;;6.15;2.45;;;;;;;9.12;77.82;98609.91;4112186;28;20250;-54
2022/01/03 07:58:35;;;;;;;17.77;3.13;;;;;;;9.07;77.99;98612.50;4111583;28;20227;-54
2022/01/03 08:00:37;;;;;;;9.95;3.00;;;;;;;9.10;78.03;98617.50;4111606;28;20701;-54
2022/01/03 08:02:40;;;;;;;11.90;2.67;;;;;;;9.22;77.06;98610.16;4096284;28;20403;-54
2022/01/03 08:04:43;;;;;;;12.32;3.17;;;;;;;9.19;77.80;98616.06;4096650;28;20404;-58
2022/01/03 08:06:45;;;;;;;7.47;2.50;;;;;;;9.29;77.37;98621.78;4108838;28;20273;-56
2022/01/03 08:08:47;;;;;;;13.15;2.72;;;;;;;9.28;76.93;98610.00;4093927;28;20278;-58
2022/01/03 08:10:49;;;;;;;12.13;2.42;;;;;;;9.29;77.13;98616.31;4094866;28;20648;-54
2022/01/03 08:12:50;;;;;;;8.43;3.15;;;;;;;9.27;77.49;98615.69;4123791;28;20297;-54
2022/01/03 08:14:52;;;;;;;12.35;3.40;;;;;;;9.32;77.26;98621.28;4127525;28;20215;-56
2022/01/03 08:16:54;;;;;;;7.68;2.50;;;;;;;9.35;76.95;98605.25;4129258;28;20206;-54
2022/01/03 08:18:55;;;;;;;14.50;2.67;;;;;;;9.39;76.96;98630.19;4110677;28;20230;-54
2022/01/03 08:21:00;;;;;;;15.02;3.45;;;;;;;9.44;76.48;98611.16;4112515;28;21004;-55
2022/01/03 08:23:02;;;;;;;18.02;2.30;;;;;;;9.59;75.94;98612.34;4128757;28;20214;-56
2022/01/03 08:25:04;;;;;;;9.80;4.07;;;;;;;9.59;75.63;98611.50;4113525;28;20211;-54
2022/01/03 08:27:07;;;;;;;13.30;2.88;;;;;;;9.61;75.79;98614.84;4112006;28;20207;-56
2022/01/03 08:29:09;;;;;;;9.10;2.15;;;;;;;9.59;75.82;98622.41;4129572;28;21142;-54
2022/01/03 08:31:14;;;;;;;8.43;2.83;;;;;;;9.70;75.07;98624.31;4114736;28;20202;-54
2022/01/03 08:33:19;;;;;;;8.32;2.13;;;;;;;9.61;75.40;98623.84;4128554;28;20250;-55
2022/01/03 08:35:22;;;;;;;17.60;4.10;;;;;;;9.64;75.38;98608.88;4126375;28;20206;-54
2022/01/03 08:37:24;;;;;;;9.07;2.67;;;;;;;9.69;75.26;98617.19;4111100;28;20203;-56
2022/01/03 08:39:27;;;;;;;16.10;2.92;;;;;;;9.64;75.26;98623.38;4109747;28;20667;-54
2022/01/03 08:41:28;;;;;;;7.78;2.10;;;;;;;9.65;75.03;98618.72;4110206;28;20238;-56
2022/01/03 08:43:30;;;;;;;17.40;3.28;;;;;;;9.68;74.81;98627.25;4111986;28;20214;-57
2022/01/03 08:45:33;;;;;;;8.27;2.70;;;;;;;9.72;75.06;98616.69;4113358;28;20210;-55
2022/01/03 08:47:40;;;;;;;15.73;2.72;;;;;;;9.75;74.94;98619.75;4127809;28;20224;-53
2022/01/03 08:49:42;;;;;;;9.57;2.28;;;;;;;9.74;74.48;98617.28;4094922;28;20239;-54
2022/01/03 08:51:44;;;;;;;9.90;2.22;;;;;;;9.76;74.39;98617.88;4110390;28;20207;-53
2022/01/03 08:53:46;;;;;;;14.07;3.08;;;;;;;9.74;74.50;98623.56;4109413;28;20245;-55
2022/01/03 08:55:48;;;;;;;19.92;3.15;;;;;;;9.87;73.64;98611.53;4106830;28;20222;-54
2022/01/03 08:57:51;;;;;;;11.43;3.15;;;;;;;9.79;74.13;98611.91;4109198;28;20238;-54
2022/01/03 08:59:53;;;;;;;9.50;2.60;;;;;;;9.82;74.48;98608.72;4108162;28;20211;-54
2022/01/03 09:01:55;;;;;;;8.85;2.78;;;;;;;9.86;73.30;98616.16;4125290;28;20257;-53
2022/01/03 09:03:57;;;;;;;10.23;2.47;;;;;;;9.91;73.16;98609.97;4107886;28;20203;-53
2022/01/03 09:06:00;;;;;;;14.43;2.35;;;;;;;9.92;73.11;98619.81;4109590;28;20218;-55
2022/01/03 09:08:02;;;;;;;14.00;2.78;;;;;;;9.89;73.36;98615.66;4107259;28;20237;-55
2022/01/03 09:10:05;;;;;;;9.10;2.92;;;;;;;9.90;73.57;98613.78;4094098;28;20204;-54
2022/01/03 09:12:08;;;;;;;8.32;2.33;;;;;;;9.90;73.27;98613.78;4124719;28;20210;-54
2022/01/03 09:14:10;;;;;;;10.57;3.22;;;;;;;9.91;73.54;98605.34;4108798;28;20249;-60
2022/01/03 09:16:13;;;;;;;12.70;3.42;;;;;;;9.92;73.71;98595.22;4123254;28;20217;-54
2022/01/03 09:18:17;;;;;;;6.50;3.25;;;;;;;9.91;73.65;98604.50;4120636;28;20266;-54
2022/01/03 09:20:23;;;;;;;9.73;2.88;;;;;;;9.95;73.39;98595.56;4127125;28;20770;-55
2022/01/03 09:22:31;;;;;;;7.53;2.97;;;;;;;9.98;73.85;98597.81;4121944;28;20708;-54
2022/01/03 09:24:45;;;;;;;6.38;1.95;;;;;;;10.03;73.29;98597.09;4108795;28;20216;-54
2022/01/03 09:29:08;;;;;;;12.35;2.88;;;;;;;10.06;72.83;98591.16;4127339;28;21018;-54
2022/01/03 09:31:10;;;;;;;8.65;2.38;;;;;;;10.10;72.04;98592.34;4123823;28;20212;-54
2022/01/03 09:33:12;;;;;;;7.18;2.95;;;;;;;10.06;73.15;98596.63;4108131;28;20265;-53
2022/01/03 09:35:15;;;;;;;14.32;2.60;;;;;;;10.08;72.92;98605.44;4095510;28;20218;-53
2022/01/03 09:37:20;;;;;;;10.70;3.03;;;;;;;10.09;72.80;98590.69;4128512;28;20606;-53
2022/01/03 09:39:22;;;;;;;15.85;3.00;;;;;;;10.08;72.92;98599.97;4112837;28;20230;-52
2022/01/03 09:41:28;;;;;;;13.32;2.88;;;;;;;10.13;72.69;98605.50;4111106;28;20218;-54
2022/01/03 09:43:48;;;;;;;9.85;2.33;;;;;;;10.07;72.43;98598.31;4128017;28;20809;-54
2022/01/03 09:45:50;;;;;;;11.02;3.15;;;;;;;10.11;72.32;98599.44;4127529;28;20194;-53
2022/01/03 09:47:54;;;;;;;13.77;3.15;;;;;;;10.07;73.03;98587.38;4111286;28;20229;-54
2022/01/03 09:49:57;;;;;;;9.80;2.83;;;;;;;10.16;73.00;98602.28;4109732;28;20755;-57
2022/01/03 09:52:01;;;;;;;7.88;3.00;;;;;;;10.09;73.13;98591.50;4111954;28;20203;-51
2022/01/03 09:54:05;;;;;;;17.23;2.70;;;;;;;10.06;73.28;98600.19;4124973;28;20591;-52
2022/01/03 09:56:09;;;;;;;5.43;2.47;;;;;;;10.14;72.76;98588.84;4106451;28;20224;-55